sensor_id;sensor_type;location;lat;lon;timestamp;P1;durP1;ratioP1;P2;durP2;ratioP2
11283;SDS011;5698;47.332;11.180;2024-01-06T00:00:10;2.20;;;1.40;;
11283;SDS011;5698;47.332;11.180;2024-01-06T00:02:37;1.50;;;1.40;;
11283;SDS011;5698;47.332;11.180;2024-01-06T00:05:04;1.53;;;1.30;;
11283;SDS011;5698;47.332;11.180;2024-01-06T00:07:32;2.27;;;1.77;;
11283;SDS011;5698;47.332;11.180;2024-01-06T00:09:59;1.50;;;1.40;;
11283;SDS011;5698;47.332;11.180;2024-01-06T00:12:26;1.23;;;1.13;;
11283;SDS011;5698;47.332;11.180;2024-01-06T00:14:54;2.37;;;1.60;;
11283;SDS011;5698;47.332;11.180;2024-01-06T00:17:21;1.53;;;1.40;;
11283;SDS011;5698;47.332;11.180;2024-01-06T00:19:48;2.23;;;1.50;;
11283;SDS011;5698;47.332;11.180;2024-01-06T00:22:16;2.33;;;1.50;;
11283;SDS011;5698;47.332;11.180;2024-01-06T00:24:43;1.80;;;1.40;;
11283;SDS011;5698;47.332;11.180;2024-01-06T00:27:10;1.70;;;1.50;;
11283;SDS011;5698;47.332;11.180;2024-01-06T00:29:38;1.37;;;1.27;;
11283;SDS011;5698;47.332;11.180;2024-01-06T00:32:07;1.80;;;1.30;;
11283;SDS011;5698;47.332;11.180;2024-01-06T00:34:34;1.40;;;1.10;;
11283;SDS011;5698;47.332;11.180;2024-01-06T00:37:01;1.87;;;1.27;;
11283;SDS011;5698;47.332;11.180;2024-01-06T00:39:28;2.03;;;1.37;;
11283;SDS011;5698;47.332;11.180;2024-01-06T00:41:54;1.33;;;1.20;;
11283;SDS011;5698;47.332;11.180;2024-01-06T00:44:21;1.37;;;1.03;;
11283;SDS011;5698;47.332;11.180;2024-01-06T00:46:48;1.23;;;1.13;;
11283;SDS011;5698;47.332;11.180;2024-01-06T00:49:17;1.70;;;1.20;;
11283;SDS011;5698;47.332;11.180;2024-01-06T00:51:44;1.43;;;1.10;;
11283;SDS011;5698;47.332;11.180;2024-01-06T00:54:11;1.43;;;1.20;;
11283;SDS011;5698;47.332;11.180;2024-01-06T00:56:37;1.37;;;1.27;;
11283;SDS011;5698;47.332;11.180;2024-01-06T00:59:07;2.60;;;1.67;;
11283;SDS011;5698;47.332;11.180;2024-01-06T01:01:34;2.10;;;1.50;;
11283;SDS011;5698;47.332;11.180;2024-01-06T01:04:01;1.90;;;1.50;;
11283;SDS011;5698;47.332;11.180;2024-01-06T01:06:29;1.70;;;1.60;;
11283;SDS011;5698;47.332;11.180;2024-01-06T01:08:56;1.83;;;1.67;;
11283;SDS011;5698;47.332;11.180;2024-01-06T01:11:23;1.70;;;1.60;;
11283;SDS011;5698;47.332;11.180;2024-01-06T01:13:50;2.87;;;1.80;;
11283;SDS011;5698;47.332;11.180;2024-01-06T01:16:17;1.73;;;1.60;;
11283;SDS011;5698;47.332;11.180;2024-01-06T01:18:44;1.60;;;1.40;;
11283;SDS011;5698;47.332;11.180;2024-01-06T01:21:11;2.07;;;1.80;;
11283;SDS011;5698;47.332;11.180;2024-01-06T01:23:39;1.80;;;1.63;;
11283;SDS011;5698;47.332;11.180;2024-01-06T01:26:06;2.43;;;1.73;;
11283;SDS011;5698;47.332;11.180;2024-01-06T01:28:33;2.47;;;2.07;;
11283;SDS011;5698;47.332;11.180;2024-01-06T01:31:01;2.67;;;1.97;;
11283;SDS011;5698;47.332;11.180;2024-01-06T01:33:28;2.23;;;2.03;;
11283;SDS011;5698;47.332;11.180;2024-01-06T01:35:54;2.63;;;2.10;;
11283;SDS011;5698;47.332;11.180;2024-01-06T01:38:21;2.20;;;1.87;;
11283;SDS011;5698;47.332;11.180;2024-01-06T01:40:50;2.23;;;2.03;;
11283;SDS011;5698;47.332;11.180;2024-01-06T01:43:17;1.80;;;1.70;;
11283;SDS011;5698;47.332;11.180;2024-01-06T01:45:44;2.30;;;2.10;;
11283;SDS011;5698;47.332;11.180;2024-01-06T01:48:14;2.00;;;1.90;;
11283;SDS011;5698;47.332;11.180;2024-01-06T01:50:41;2.03;;;1.90;;
11283;SDS011;5698;47.332;11.180;2024-01-06T01:53:08;2.53;;;2.20;;
11283;SDS011;5698;47.332;11.180;2024-01-06T01:55:36;3.10;;;2.30;;
11283;SDS011;5698;47.332;11.180;2024-01-06T01:58:04;2.30;;;2.10;;
11283;SDS011;5698;47.332;11.180;2024-01-06T02:00:32;2.80;;;2.50;;
11283;SDS011;5698;47.332;11.180;2024-01-06T02:02:59;2.60;;;2.40;;
11283;SDS011;5698;47.332;11.180;2024-01-06T02:05:27;2.77;;;2.50;;
11283;SDS011;5698;47.332;11.180;2024-01-06T02:07:54;2.37;;;2.17;;
11283;SDS011;5698;47.332;11.180;2024-01-06T02:10:21;2.43;;;2.23;;
11283;SDS011;5698;47.332;11.180;2024-01-06T02:12:48;1.83;;;1.73;;
11283;SDS011;5698;47.332;11.180;2024-01-06T02:15:18;1.90;;;1.80;;
11283;SDS011;5698;47.332;11.180;2024-01-06T02:17:45;2.23;;;2.10;;
11283;SDS011;5698;47.332;11.180;2024-01-06T02:20:12;2.47;;;2.27;;
11283;SDS011;5698;47.332;11.180;2024-01-06T02:22:42;2.17;;;1.97;;
11283;SDS011;5698;47.332;11.180;2024-01-06T02:25:08;2.10;;;1.90;;
11283;SDS011;5698;47.332;11.180;2024-01-06T02:27:37;1.90;;;1.80;;
11283;SDS011;5698;47.332;11.180;2024-01-06T02:30:05;1.87;;;1.77;;
11283;SDS011;5698;47.332;11.180;2024-01-06T02:32:33;2.23;;;2.03;;
11283;SDS011;5698;47.332;11.180;2024-01-06T02:35:00;2.03;;;1.70;;
11283;SDS011;5698;47.332;11.180;2024-01-06T02:37:27;2.40;;;2.10;;
11283;SDS011;5698;47.332;11.180;2024-01-06T02:39:55;2.13;;;1.93;;
11283;SDS011;5698;47.332;11.180;2024-01-06T02:42:22;1.97;;;1.80;;
11283;SDS011;5698;47.332;11.180;2024-01-06T02:44:50;1.63;;;1.53;;
11283;SDS011;5698;47.332;11.180;2024-01-06T02:47:17;1.50;;;1.40;;
11283;SDS011;5698;47.332;11.180;2024-01-06T02:49:44;1.50;;;1.30;;
11283;SDS011;5698;47.332;11.180;2024-01-06T02:52:11;1.40;;;1.17;;
11283;SDS011;5698;47.332;11.180;2024-01-06T02:54:38;1.37;;;1.20;;
11283;SDS011;5698;47.332;11.180;2024-01-06T02:57:06;1.93;;;1.73;;
11283;SDS011;5698;47.332;11.180;2024-01-06T02:59:33;1.70;;;1.60;;
11283;SDS011;5698;47.332;11.180;2024-01-06T03:02:01;1.90;;;1.73;;
11283;SDS011;5698;47.332;11.180;2024-01-06T03:04:28;2.00;;;1.80;;
11283;SDS011;5698;47.332;11.180;2024-01-06T03:06:55;2.37;;;1.80;;
11283;SDS011;5698;47.332;11.180;2024-01-06T03:09:22;2.27;;;2.00;;
11283;SDS011;5698;47.332;11.180;2024-01-06T03:11:49;2.47;;;2.07;;
11283;SDS011;5698;47.332;11.180;2024-01-06T03:14:17;2.53;;;2.00;;
11283;SDS011;5698;47.332;11.180;2024-01-06T03:16:44;1.63;;;1.53;;
11283;SDS011;5698;47.332;11.180;2024-01-06T03:19:11;1.70;;;1.60;;
11283;SDS011;5698;47.332;11.180;2024-01-06T03:21:38;1.43;;;1.33;;
11283;SDS011;5698;47.332;11.180;2024-01-06T03:24:06;1.67;;;1.57;;
11283;SDS011;5698;47.332;11.180;2024-01-06T03:26:34;1.67;;;1.50;;
11283;SDS011;5698;47.332;11.180;2024-01-06T03:29:01;1.97;;;1.53;;
11283;SDS011;5698;47.332;11.180;2024-01-06T03:31:30;1.73;;;1.63;;
11283;SDS011;5698;47.332;11.180;2024-01-06T03:33:57;1.50;;;1.40;;
11283;SDS011;5698;47.332;11.180;2024-01-06T03:36:24;1.37;;;1.27;;
11283;SDS011;5698;47.332;11.180;2024-01-06T03:38:51;1.60;;;1.50;;
11283;SDS011;5698;47.332;11.180;2024-01-06T03:41:18;1.53;;;1.43;;
11283;SDS011;5698;47.332;11.180;2024-01-06T03:43:45;1.53;;;1.43;;
11283;SDS011;5698;47.332;11.180;2024-01-06T03:46:12;1.70;;;1.60;;
11283;SDS011;5698;47.332;11.180;2024-01-06T03:48:40;1.60;;;1.50;;
11283;SDS011;5698;47.332;11.180;2024-01-06T03:51:07;1.50;;;1.40;;
11283;SDS011;5698;47.332;11.180;2024-01-06T03:53:35;1.70;;;1.60;;
11283;SDS011;5698;47.332;11.180;2024-01-06T03:56:03;1.20;;;1.10;;
11283;SDS011;5698;47.332;11.180;2024-01-06T03:58:30;1.50;;;1.40;;
11283;SDS011;5698;47.332;11.180;2024-01-06T04:00:57;1.30;;;1.20;;
11283;SDS011;5698;47.332;11.180;2024-01-06T04:03:24;1.00;;;0.97;;
11283;SDS011;5698;47.332;11.180;2024-01-06T04:05:53;1.23;;;1.13;;
11283;SDS011;5698;47.332;11.180;2024-01-06T04:08:20;1.10;;;1.00;;
11283;SDS011;5698;47.332;11.180;2024-01-06T04:10:47;0.70;;;0.70;;
11283;SDS011;5698;47.332;11.180;2024-01-06T04:13:14;0.90;;;0.90;;
11283;SDS011;5698;47.332;11.180;2024-01-06T04:15:42;0.80;;;0.80;;
11283;SDS011;5698;47.332;11.180;2024-01-06T04:18:09;1.07;;;0.97;;
11283;SDS011;5698;47.332;11.180;2024-01-06T04:20:36;0.70;;;0.70;;
11283;SDS011;5698;47.332;11.180;2024-01-06T04:23:04;0.70;;;0.70;;
11283;SDS011;5698;47.332;11.180;2024-01-06T04:25:31;0.40;;;0.40;;
11283;SDS011;5698;47.332;11.180;2024-01-06T04:27:58;0.50;;;0.50;;
11283;SDS011;5698;47.332;11.180;2024-01-06T04:30:25;0.93;;;0.93;;
11283;SDS011;5698;47.332;11.180;2024-01-06T04:32:52;0.80;;;0.80;;
11283;SDS011;5698;47.332;11.180;2024-01-06T04:35:19;0.90;;;0.90;;
11283;SDS011;5698;47.332;11.180;2024-01-06T04:37:46;0.97;;;0.97;;
11283;SDS011;5698;47.332;11.180;2024-01-06T04:40:15;0.70;;;0.70;;
11283;SDS011;5698;47.332;11.180;2024-01-06T04:42:42;0.80;;;0.80;;
11283;SDS011;5698;47.332;11.180;2024-01-06T04:45:09;0.90;;;0.90;;
11283;SDS011;5698;47.332;11.180;2024-01-06T04:47:36;0.70;;;0.70;;
11283;SDS011;5698;47.332;11.180;2024-01-06T04:50:03;0.93;;;0.90;;
11283;SDS011;5698;47.332;11.180;2024-01-06T04:52:31;0.70;;;0.70;;
11283;SDS011;5698;47.332;11.180;2024-01-06T04:54:58;0.50;;;0.50;;
11283;SDS011;5698;47.332;11.180;2024-01-06T04:57:26;0.90;;;0.90;;
11283;SDS011;5698;47.332;11.180;2024-01-06T04:59:53;0.60;;;0.60;;
11283;SDS011;5698;47.332;11.180;2024-01-06T05:02:20;0.70;;;0.70;;
11283;SDS011;5698;47.332;11.180;2024-01-06T05:04:47;0.90;;;0.80;;
11283;SDS011;5698;47.332;11.180;2024-01-06T05:07:14;0.50;;;0.50;;
11283;SDS011;5698;47.332;11.180;2024-01-06T05:09:41;0.50;;;0.50;;
11283;SDS011;5698;47.332;11.180;2024-01-06T05:12:08;0.43;;;0.43;;
11283;SDS011;5698;47.332;11.180;2024-01-06T05:14:36;0.60;;;0.60;;
11283;SDS011;5698;47.332;11.180;2024-01-06T05:17:04;0.50;;;0.50;;
11283;SDS011;5698;47.332;11.180;2024-01-06T05:19:30;0.50;;;0.50;;
11283;SDS011;5698;47.332;11.180;2024-01-06T05:21:58;0.53;;;0.53;;
11283;SDS011;5698;47.332;11.180;2024-01-06T05:24:25;0.50;;;0.50;;
11283;SDS011;5698;47.332;11.180;2024-01-06T05:26:52;0.67;;;0.67;;
11283;SDS011;5698;47.332;11.180;2024-01-06T05:29:18;0.50;;;0.50;;
11283;SDS011;5698;47.332;11.180;2024-01-06T05:31:47;0.63;;;0.63;;
11283;SDS011;5698;47.332;11.180;2024-01-06T05:34:16;0.60;;;0.60;;
11283;SDS011;5698;47.332;11.180;2024-01-06T05:36:43;0.53;;;0.53;;
11283;SDS011;5698;47.332;11.180;2024-01-06T05:39:10;0.53;;;0.53;;
11283;SDS011;5698;47.332;11.180;2024-01-06T05:41:37;0.60;;;0.60;;
11283;SDS011;5698;47.332;11.180;2024-01-06T05:44:04;0.60;;;0.60;;
11283;SDS011;5698;47.332;11.180;2024-01-06T05:46:32;0.50;;;0.50;;
11283;SDS011;5698;47.332;11.180;2024-01-06T05:49:01;0.40;;;0.40;;
11283;SDS011;5698;47.332;11.180;2024-01-06T05:51:28;0.40;;;0.40;;
11283;SDS011;5698;47.332;11.180;2024-01-06T05:53:55;0.60;;;0.60;;
11283;SDS011;5698;47.332;11.180;2024-01-06T05:56:22;0.40;;;0.40;;
11283;SDS011;5698;47.332;11.180;2024-01-06T05:58:50;0.40;;;0.40;;
11283;SDS011;5698;47.332;11.180;2024-01-06T06:01:17;0.30;;;0.30;;
11283;SDS011;5698;47.332;11.180;2024-01-06T06:03:44;0.30;;;0.30;;
11283;SDS011;5698;47.332;11.180;2024-01-06T06:06:12;0.33;;;0.33;;
11283;SDS011;5698;47.332;11.180;2024-01-06T06:08:40;0.40;;;0.40;;
11283;SDS011;5698;47.332;11.180;2024-01-06T06:11:08;0.50;;;0.50;;
11283;SDS011;5698;47.332;11.180;2024-01-06T06:13:37;0.40;;;0.40;;
11283;SDS011;5698;47.332;11.180;2024-01-06T06:16:05;0.60;;;0.60;;
11283;SDS011;5698;47.332;11.180;2024-01-06T06:18:32;1.20;;;1.07;;
11283;SDS011;5698;47.332;11.180;2024-01-06T06:21:00;1.43;;;1.30;;
11283;SDS011;5698;47.332;11.180;2024-01-06T06:23:30;0.77;;;0.77;;
11283;SDS011;5698;47.332;11.180;2024-01-06T06:25:56;0.60;;;0.60;;
11283;SDS011;5698;47.332;11.180;2024-01-06T06:28:24;1.37;;;1.27;;
11283;SDS011;5698;47.332;11.180;2024-01-06T06:30:51;2.27;;;1.27;;
11283;SDS011;5698;47.332;11.180;2024-01-06T06:33:18;1.70;;;1.20;;
11283;SDS011;5698;47.332;11.180;2024-01-06T06:35:45;0.77;;;0.70;;
11283;SDS011;5698;47.332;11.180;2024-01-06T06:38:12;0.50;;;0.50;;
11283;SDS011;5698;47.332;11.180;2024-01-06T06:40:40;0.40;;;0.40;;
11283;SDS011;5698;47.332;11.180;2024-01-06T06:43:07;0.40;;;0.40;;
11283;SDS011;5698;47.332;11.180;2024-01-06T06:45:34;0.80;;;0.80;;
11283;SDS011;5698;47.332;11.180;2024-01-06T06:48:01;0.80;;;0.80;;
11283;SDS011;5698;47.332;11.180;2024-01-06T06:50:28;0.70;;;0.70;;
11283;SDS011;5698;47.332;11.180;2024-01-06T06:52:55;0.60;;;0.60;;
11283;SDS011;5698;47.332;11.180;2024-01-06T06:55:22;0.40;;;0.40;;
11283;SDS011;5698;47.332;11.180;2024-01-06T06:57:50;0.40;;;0.40;;
11283;SDS011;5698;47.332;11.180;2024-01-06T07:00:18;0.40;;;0.40;;
11283;SDS011;5698;47.332;11.180;2024-01-06T07:02:45;0.30;;;0.30;;
11283;SDS011;5698;47.332;11.180;2024-01-06T07:05:12;0.40;;;0.40;;
11283;SDS011;5698;47.332;11.180;2024-01-06T07:07:39;0.40;;;0.40;;
11283;SDS011;5698;47.332;11.180;2024-01-06T07:10:08;0.30;;;0.30;;
11283;SDS011;5698;47.332;11.180;2024-01-06T07:12:35;0.30;;;0.30;;
11283;SDS011;5698;47.332;11.180;2024-01-06T07:15:04;0.40;;;0.40;;
11283;SDS011;5698;47.332;11.180;2024-01-06T07:17:32;0.40;;;0.40;;
11283;SDS011;5698;47.332;11.180;2024-01-06T07:19:59;0.77;;;0.40;;
11283;SDS011;5698;47.332;11.180;2024-01-06T07:22:26;0.30;;;0.30;;
11283;SDS011;5698;47.332;11.180;2024-01-06T07:24:53;0.50;;;0.40;;
11283;SDS011;5698;47.332;11.180;2024-01-06T07:27:20;0.30;;;0.30;;
11283;SDS011;5698;47.332;11.180;2024-01-06T07:29:47;0.30;;;0.30;;
11283;SDS011;5698;47.332;11.180;2024-01-06T07:32:15;0.30;;;0.30;;
11283;SDS011;5698;47.332;11.180;2024-01-06T07:34:42;0.40;;;0.40;;
11283;SDS011;5698;47.332;11.180;2024-01-06T07:37:09;0.33;;;0.33;;
11283;SDS011;5698;47.332;11.180;2024-01-06T07:39:36;0.60;;;0.43;;
11283;SDS011;5698;47.332;11.180;2024-01-06T07:42:04;0.33;;;0.33;;
11283;SDS011;5698;47.332;11.180;2024-01-06T07:44:30;0.43;;;0.43;;
11283;SDS011;5698;47.332;11.180;2024-01-06T07:46:57;0.60;;;0.60;;
11283;SDS011;5698;47.332;11.180;2024-01-06T07:49:26;0.60;;;0.60;;
11283;SDS011;5698;47.332;11.180;2024-01-06T07:51:53;1.17;;;1.03;;
11283;SDS011;5698;47.332;11.180;2024-01-06T07:54:20;0.90;;;0.90;;
11283;SDS011;5698;47.332;11.180;2024-01-06T07:56:46;0.70;;;0.70;;
11283;SDS011;5698;47.332;11.180;2024-01-06T07:59:13;0.70;;;0.70;;
11283;SDS011;5698;47.332;11.180;2024-01-06T08:01:40;2.17;;;2.07;;
11283;SDS011;5698;47.332;11.180;2024-01-06T08:04:08;5.37;;;4.97;;
11283;SDS011;5698;47.332;11.180;2024-01-06T08:06:37;14.53;;;13.13;;
11283;SDS011;5698;47.332;11.180;2024-01-06T08:09:04;21.23;;;19.03;;
11283;SDS011;5698;47.332;11.180;2024-01-06T08:11:33;19.07;;;17.27;;
11283;SDS011;5698;47.332;11.180;2024-01-06T08:14:00;9.53;;;8.73;;
11283;SDS011;5698;47.332;11.180;2024-01-06T08:16:27;4.90;;;4.40;;
11283;SDS011;5698;47.332;11.180;2024-01-06T08:18:54;5.17;;;4.33;;
11283;SDS011;5698;47.332;11.180;2024-01-06T08:21:21;1.60;;;1.50;;
11283;SDS011;5698;47.332;11.180;2024-01-06T08:23:50;1.13;;;0.93;;
11283;SDS011;5698;47.332;11.180;2024-01-06T08:26:17;1.40;;;1.30;;
11283;SDS011;5698;47.332;11.180;2024-01-06T08:28:44;1.30;;;1.20;;
11283;SDS011;5698;47.332;11.180;2024-01-06T08:31:11;1.07;;;0.97;;
11283;SDS011;5698;47.332;11.180;2024-01-06T08:33:38;0.70;;;0.70;;
11283;SDS011;5698;47.332;11.180;2024-01-06T08:36:05;0.80;;;0.80;;
11283;SDS011;5698;47.332;11.180;2024-01-06T08:38:32;1.53;;;0.70;;
11283;SDS011;5698;47.332;11.180;2024-01-06T08:41:00;0.83;;;0.50;;
11283;SDS011;5698;47.332;11.180;2024-01-06T08:43:27;0.40;;;0.40;;
11283;SDS011;5698;47.332;11.180;2024-01-06T08:45:54;1.77;;;1.30;;
11283;SDS011;5698;47.332;11.180;2024-01-06T08:48:21;3.47;;;2.50;;
11283;SDS011;5698;47.332;11.180;2024-01-06T08:50:48;3.90;;;3.10;;
11283;SDS011;5698;47.332;11.180;2024-01-06T08:53:16;2.70;;;2.50;;
11283;SDS011;5698;47.332;11.180;2024-01-06T08:55:43;2.17;;;1.97;;
11283;SDS011;5698;47.332;11.180;2024-01-06T08:58:11;1.30;;;1.20;;
11283;SDS011;5698;47.332;11.180;2024-01-06T09:00:38;0.87;;;0.87;;
11283;SDS011;5698;47.332;11.180;2024-01-06T09:03:05;1.20;;;0.80;;
11283;SDS011;5698;47.332;11.180;2024-01-06T09:05:34;1.70;;;1.00;;
11283;SDS011;5698;47.332;11.180;2024-01-06T09:08:01;0.50;;;0.50;;
11283;SDS011;5698;47.332;11.180;2024-01-06T09:10:29;0.50;;;0.50;;
11283;SDS011;5698;47.332;11.180;2024-01-06T09:12:55;0.40;;;0.40;;
11283;SDS011;5698;47.332;11.180;2024-01-06T09:15:24;0.43;;;0.43;;
11283;SDS011;5698;47.332;11.180;2024-01-06T09:17:51;0.50;;;0.50;;
11283;SDS011;5698;47.332;11.180;2024-01-06T09:20:18;0.53;;;0.40;;
11283;SDS011;5698;47.332;11.180;2024-01-06T09:22:48;0.30;;;0.30;;
11283;SDS011;5698;47.332;11.180;2024-01-06T09:25:15;0.30;;;0.30;;
11283;SDS011;5698;47.332;11.180;2024-01-06T09:27:42;0.30;;;0.30;;
11283;SDS011;5698;47.332;11.180;2024-01-06T09:30:09;0.40;;;0.40;;
11283;SDS011;5698;47.332;11.180;2024-01-06T09:32:38;1.60;;;0.67;;
11283;SDS011;5698;47.332;11.180;2024-01-06T09:35:05;0.53;;;0.43;;
11283;SDS011;5698;47.332;11.180;2024-01-06T09:37:32;0.40;;;0.40;;
11283;SDS011;5698;47.332;11.180;2024-01-06T09:39:59;1.00;;;0.60;;
11283;SDS011;5698;47.332;11.180;2024-01-06T09:42:26;0.80;;;0.80;;
11283;SDS011;5698;47.332;11.180;2024-01-06T09:44:54;0.60;;;0.50;;
11283;SDS011;5698;47.332;11.180;2024-01-06T09:47:22;0.60;;;0.60;;
11283;SDS011;5698;47.332;11.180;2024-01-06T09:49:52;0.47;;;0.47;;
11283;SDS011;5698;47.332;11.180;2024-01-06T09:52:22;0.60;;;0.60;;
11283;SDS011;5698;47.332;11.180;2024-01-06T09:54:51;0.50;;;0.50;;
11283;SDS011;5698;47.332;11.180;2024-01-06T09:57:18;0.40;;;0.40;;
11283;SDS011;5698;47.332;11.180;2024-01-06T09:59:46;0.47;;;0.47;;
11283;SDS011;5698;47.332;11.180;2024-01-06T10:02:14;0.50;;;0.50;;
11283;SDS011;5698;47.332;11.180;2024-01-06T10:04:42;0.50;;;0.50;;
11283;SDS011;5698;47.332;11.180;2024-01-06T10:07:11;0.50;;;0.50;;
11283;SDS011;5698;47.332;11.180;2024-01-06T10:09:39;0.97;;;0.53;;
11283;SDS011;5698;47.332;11.180;2024-01-06T10:12:07;1.33;;;0.50;;
11283;SDS011;5698;47.332;11.180;2024-01-06T10:14:35;1.27;;;0.67;;
11283;SDS011;5698;47.332;11.180;2024-01-06T10:17:05;0.60;;;0.60;;
11283;SDS011;5698;47.332;11.180;2024-01-06T10:19:32;0.60;;;0.60;;
11283;SDS011;5698;47.332;11.180;2024-01-06T10:22:00;0.63;;;0.60;;
11283;SDS011;5698;47.332;11.180;2024-01-06T10:24:29;1.30;;;0.70;;
11283;SDS011;5698;47.332;11.180;2024-01-06T10:26:57;0.60;;;0.60;;
11283;SDS011;5698;47.332;11.180;2024-01-06T10:29:24;0.60;;;0.60;;
11283;SDS011;5698;47.332;11.180;2024-01-06T10:31:53;0.50;;;0.50;;
11283;SDS011;5698;47.332;11.180;2024-01-06T10:34:20;0.50;;;0.50;;
11283;SDS011;5698;47.332;11.180;2024-01-06T10:36:48;0.63;;;0.60;;
11283;SDS011;5698;47.332;11.180;2024-01-06T10:39:17;0.40;;;0.40;;
11283;SDS011;5698;47.332;11.180;2024-01-06T10:41:45;0.40;;;0.40;;
11283;SDS011;5698;47.332;11.180;2024-01-06T10:44:14;0.30;;;0.30;;
11283;SDS011;5698;47.332;11.180;2024-01-06T10:46:42;0.50;;;0.50;;
11283;SDS011;5698;47.332;11.180;2024-01-06T10:49:10;0.40;;;0.40;;
11283;SDS011;5698;47.332;11.180;2024-01-06T10:51:38;0.33;;;0.33;;
11283;SDS011;5698;47.332;11.180;2024-01-06T10:54:05;0.47;;;0.47;;
11283;SDS011;5698;47.332;11.180;2024-01-06T10:56:36;0.47;;;0.47;;
11283;SDS011;5698;47.332;11.180;2024-01-06T10:59:05;0.90;;;0.40;;
11283;SDS011;5698;47.332;11.180;2024-01-06T11:01:33;0.50;;;0.50;;
11283;SDS011;5698;47.332;11.180;2024-01-06T11:04:02;0.50;;;0.50;;
11283;SDS011;5698;47.332;11.180;2024-01-06T11:06:30;0.50;;;0.50;;
11283;SDS011;5698;47.332;11.180;2024-01-06T11:08:59;0.60;;;0.60;;
11283;SDS011;5698;47.332;11.180;2024-01-06T11:11:33;0.43;;;0.43;;
11283;SDS011;5698;47.332;11.180;2024-01-06T11:14:19;0.60;;;0.60;;
11283;SDS011;5698;47.332;11.180;2024-01-06T11:16:48;0.70;;;0.70;;
11283;SDS011;5698;47.332;11.180;2024-01-06T11:22:18;0.60;;;0.60;;
11283;SDS011;5698;47.332;11.180;2024-01-06T11:24:47;0.30;;;0.30;;
11283;SDS011;5698;47.332;11.180;2024-01-06T11:27:18;0.33;;;0.33;;
11283;SDS011;5698;47.332;11.180;2024-01-06T11:29:47;0.40;;;0.40;;
11283;SDS011;5698;47.332;11.180;2024-01-06T11:32:18;0.40;;;0.40;;
11283;SDS011;5698;47.332;11.180;2024-01-06T11:34:49;0.50;;;0.50;;
11283;SDS011;5698;47.332;11.180;2024-01-06T11:37:19;0.40;;;0.40;;
11283;SDS011;5698;47.332;11.180;2024-01-06T11:39:49;0.50;;;0.50;;
11283;SDS011;5698;47.332;11.180;2024-01-06T11:42:18;0.70;;;0.70;;
11283;SDS011;5698;47.332;11.180;2024-01-06T11:44:50;1.20;;;1.10;;
11283;SDS011;5698;47.332;11.180;2024-01-06T11:47:18;0.60;;;0.60;;
11283;SDS011;5698;47.332;11.180;2024-01-06T11:49:48;0.60;;;0.60;;
11283;SDS011;5698;47.332;11.180;2024-01-06T11:52:22;0.50;;;0.50;;
11283;SDS011;5698;47.332;11.180;2024-01-06T11:54:50;0.40;;;0.40;;
11283;SDS011;5698;47.332;11.180;2024-01-06T11:57:19;0.50;;;0.50;;
11283;SDS011;5698;47.332;11.180;2024-01-06T11:59:46;0.50;;;0.50;;
11283;SDS011;5698;47.332;11.180;2024-01-06T12:02:17;0.77;;;0.77;;
11283;SDS011;5698;47.332;11.180;2024-01-06T12:04:47;0.70;;;0.70;;
11283;SDS011;5698;47.332;11.180;2024-01-06T12:07:16;0.50;;;0.50;;
11283;SDS011;5698;47.332;11.180;2024-01-06T12:09:44;0.50;;;0.50;;
11283;SDS011;5698;47.332;11.180;2024-01-06T12:12:11;0.40;;;0.40;;
11283;SDS011;5698;47.332;11.180;2024-01-06T12:14:41;0.40;;;0.40;;
11283;SDS011;5698;47.332;11.180;2024-01-06T12:17:09;0.53;;;0.50;;
11283;SDS011;5698;47.332;11.180;2024-01-06T12:19:39;0.50;;;0.50;;
11283;SDS011;5698;47.332;11.180;2024-01-06T12:22:09;0.53;;;0.53;;
11283;SDS011;5698;47.332;11.180;2024-01-06T12:24:38;0.40;;;0.40;;
11283;SDS011;5698;47.332;11.180;2024-01-06T12:27:06;0.40;;;0.40;;
11283;SDS011;5698;47.332;11.180;2024-01-06T12:29:37;0.40;;;0.40;;
11283;SDS011;5698;47.332;11.180;2024-01-06T12:32:05;0.47;;;0.47;;
11283;SDS011;5698;47.332;11.180;2024-01-06T12:34:33;0.40;;;0.40;;
11283;SDS011;5698;47.332;11.180;2024-01-06T12:37:02;0.40;;;0.40;;
11283;SDS011;5698;47.332;11.180;2024-01-06T12:39:29;0.40;;;0.40;;
11283;SDS011;5698;47.332;11.180;2024-01-06T12:41:57;0.43;;;0.43;;
11283;SDS011;5698;47.332;11.180;2024-01-06T12:44:25;0.40;;;0.40;;
11283;SDS011;5698;47.332;11.180;2024-01-06T12:46:52;0.40;;;0.40;;
11283;SDS011;5698;47.332;11.180;2024-01-06T12:49:20;0.47;;;0.47;;
11283;SDS011;5698;47.332;11.180;2024-01-06T12:51:47;0.43;;;0.43;;
11283;SDS011;5698;47.332;11.180;2024-01-06T12:54:16;0.43;;;0.43;;
11283;SDS011;5698;47.332;11.180;2024-01-06T12:56:43;0.40;;;0.40;;
11283;SDS011;5698;47.332;11.180;2024-01-06T12:59:10;0.30;;;0.30;;
11283;SDS011;5698;47.332;11.180;2024-01-06T13:01:37;0.40;;;0.40;;
11283;SDS011;5698;47.332;11.180;2024-01-06T13:04:04;0.30;;;0.30;;
11283;SDS011;5698;47.332;11.180;2024-01-06T13:06:31;0.40;;;0.40;;
11283;SDS011;5698;47.332;11.180;2024-01-06T13:08:58;0.30;;;0.30;;
11283;SDS011;5698;47.332;11.180;2024-01-06T13:11:28;0.30;;;0.30;;
11283;SDS011;5698;47.332;11.180;2024-01-06T13:13:56;0.40;;;0.40;;
11283;SDS011;5698;47.332;11.180;2024-01-06T13:16:23;0.40;;;0.40;;
11283;SDS011;5698;47.332;11.180;2024-01-06T13:18:50;0.30;;;0.30;;
11283;SDS011;5698;47.332;11.180;2024-01-06T13:21:17;0.40;;;0.40;;
11283;SDS011;5698;47.332;11.180;2024-01-06T13:23:44;0.40;;;0.40;;
11283;SDS011;5698;47.332;11.180;2024-01-06T13:26:11;0.60;;;0.60;;
11283;SDS011;5698;47.332;11.180;2024-01-06T13:28:40;1.00;;;0.90;;
11283;SDS011;5698;47.332;11.180;2024-01-06T13:31:07;1.20;;;1.10;;
11283;SDS011;5698;47.332;11.180;2024-01-06T13:33:34;1.40;;;1.30;;
11283;SDS011;5698;47.332;11.180;2024-01-06T13:36:01;2.33;;;1.97;;
11283;SDS011;5698;47.332;11.180;2024-01-06T13:38:29;1.80;;;1.70;;
11283;SDS011;5698;47.332;11.180;2024-01-06T13:40:56;1.13;;;1.03;;
11283;SDS011;5698;47.332;11.180;2024-01-06T13:43:23;1.00;;;1.00;;
11283;SDS011;5698;47.332;11.180;2024-01-06T13:45:51;1.40;;;1.30;;
11283;SDS011;5698;47.332;11.180;2024-01-06T13:48:18;0.70;;;0.70;;
11283;SDS011;5698;47.332;11.180;2024-01-06T13:50:45;0.57;;;0.57;;
11283;SDS011;5698;47.332;11.180;2024-01-06T13:53:13;0.50;;;0.50;;
11283;SDS011;5698;47.332;11.180;2024-01-06T13:55:41;0.70;;;0.60;;
11283;SDS011;5698;47.332;11.180;2024-01-06T13:58:08;0.60;;;0.50;;
11283;SDS011;5698;47.332;11.180;2024-01-06T14:00:35;0.40;;;0.40;;
11283;SDS011;5698;47.332;11.180;2024-01-06T14:03:04;0.70;;;0.50;;
11283;SDS011;5698;47.332;11.180;2024-01-06T14:05:32;0.40;;;0.40;;
11283;SDS011;5698;47.332;11.180;2024-01-06T14:08:00;0.40;;;0.40;;
11283;SDS011;5698;47.332;11.180;2024-01-06T14:10:27;0.40;;;0.40;;
11283;SDS011;5698;47.332;11.180;2024-01-06T14:12:56;0.30;;;0.30;;
11283;SDS011;5698;47.332;11.180;2024-01-06T14:15:22;0.60;;;0.47;;
11283;SDS011;5698;47.332;11.180;2024-01-06T14:17:51;0.33;;;0.33;;
11283;SDS011;5698;47.332;11.180;2024-01-06T14:20:20;0.40;;;0.40;;
11283;SDS011;5698;47.332;11.180;2024-01-06T14:22:47;0.30;;;0.30;;
11283;SDS011;5698;47.332;11.180;2024-01-06T14:25:14;0.37;;;0.37;;
11283;SDS011;5698;47.332;11.180;2024-01-06T14:27:42;0.30;;;0.30;;
11283;SDS011;5698;47.332;11.180;2024-01-06T14:30:10;0.30;;;0.30;;
11283;SDS011;5698;47.332;11.180;2024-01-06T14:32:37;0.33;;;0.33;;
11283;SDS011;5698;47.332;11.180;2024-01-06T14:35:04;0.40;;;0.40;;
11283;SDS011;5698;47.332;11.180;2024-01-06T14:37:36;0.50;;;0.50;;
11283;SDS011;5698;47.332;11.180;2024-01-06T14:40:04;0.50;;;0.50;;
11283;SDS011;5698;47.332;11.180;2024-01-06T14:42:32;0.40;;;0.40;;
11283;SDS011;5698;47.332;11.180;2024-01-06T14:45:01;0.30;;;0.30;;
11283;SDS011;5698;47.332;11.180;2024-01-06T14:47:28;0.40;;;0.40;;
11283;SDS011;5698;47.332;11.180;2024-01-06T14:49:55;0.37;;;0.37;;
11283;SDS011;5698;47.332;11.180;2024-01-06T14:52:22;0.63;;;0.63;;